createdAt,value
2023-04-24T00:02:58.967Z,16.10
2023-04-24T00:07:58.053Z,15.96
2023-04-24T00:12:58.182Z,15.86
2023-04-24T00:17:56.923Z,15.84
2023-04-24T00:22:55.805Z,15.81
2023-04-24T00:27:54.506Z,15.74
2023-04-24T00:32:54.844Z,15.80
2023-04-24T00:37:55.902Z,15.80
2023-04-24T00:42:54.811Z,15.81
2023-04-24T00:47:56.038Z,15.84
2023-04-24T00:52:55.599Z,15.86
2023-04-24T00:57:54.778Z,15.81
2023-04-24T01:02:55.918Z,15.61
2023-04-24T01:07:54.932Z,15.44
2023-04-24T01:12:54.340Z,15.52
2023-04-24T01:17:53.246Z,15.49
2023-04-24T01:22:57.598Z,15.53
2023-04-24T01:27:58.111Z,15.55
2023-04-24T01:32:58.048Z,15.58
2023-04-24T01:37:58.268Z,15.64
2023-04-24T01:42:57.547Z,15.60
2023-04-24T01:47:56.472Z,15.46
2023-04-24T01:52:57.773Z,15.50
2023-04-24T01:57:58.317Z,15.30
2023-04-24T02:02:57.381Z,15.10
2023-04-24T02:08:01.066Z,15.13
2023-04-24T02:13:00.855Z,15.18
2023-04-24T02:17:59.703Z,15.20
2023-04-24T02:22:58.642Z,15.22
2023-04-24T02:27:58.812Z,15.25
2023-04-24T02:32:58.807Z,15.27
2023-04-24T02:37:57.514Z,15.27
2023-04-24T02:42:56.348Z,15.17
2023-04-24T02:47:58.072Z,15.04
2023-04-24T02:52:56.970Z,15.00
2023-04-24T02:57:55.900Z,14.90
2023-04-24T03:02:54.918Z,14.93
2023-04-24T03:07:57.203Z,15.04
2023-04-24T03:12:56.480Z,15.05
2023-04-24T03:17:56.793Z,15.12
2023-04-24T03:22:58.208Z,15.16
2023-04-24T03:28:04.007Z,15.11
2023-04-24T03:33:25.663Z,15.16
2023-04-24T03:38:35.955Z,15.19
2023-04-24T03:44:12.676Z,15.19
2023-04-24T03:49:13.194Z,15.08
2023-04-24T03:54:17.022Z,14.92
2023-04-24T03:59:18.080Z,14.85
2023-04-24T04:04:21.887Z,14.89
2023-04-24T04:09:22.784Z,14.81
2023-04-24T04:14:21.570Z,14.83
2023-04-24T04:19:20.893Z,14.89
2023-04-24T04:24:25.331Z,14.95
2023-04-24T04:29:25.153Z,14.94
2023-04-24T04:34:25.726Z,14.84
2023-04-24T04:39:31.783Z,14.74
2023-04-24T04:44:37.439Z,14.76
2023-04-24T04:49:37.986Z,14.94
2023-04-24T04:54:40.419Z,15.01
2023-04-24T04:59:39.391Z,14.88
2023-04-24T05:04:44.521Z,14.98
2023-04-24T05:09:45.944Z,15.11
2023-04-24T05:14:45.322Z,15.29
2023-04-24T05:19:45.682Z,15.38
2023-04-24T05:24:47.372Z,15.49
2023-04-24T05:29:56.512Z,15.60
2023-04-24T05:34:55.510Z,15.65
2023-04-24T05:39:55.816Z,15.81
2023-04-24T05:44:58.108Z,15.96
2023-04-24T05:49:59.112Z,16.00
2023-04-24T05:55:02.011Z,16.12
2023-04-24T06:00:06.893Z,16.16
2023-04-24T06:05:16.031Z,16.24
2023-04-24T06:10:17.087Z,16.38
2023-04-24T06:15:17.476Z,16.50
2023-04-24T06:20:32.773Z,16.63
2023-04-24T06:25:35.171Z,16.80
2023-04-24T06:30:36.581Z,16.95
2023-04-24T06:35:37.329Z,17.02
2023-04-24T06:40:37.762Z,17.17
2023-04-24T06:45:36.862Z,17.32
2023-04-24T06:50:39.197Z,17.36
2023-04-24T06:55:51.970Z,17.39
2023-04-24T07:00:53.064Z,17.54
2023-04-24T07:05:52.572Z,17.66
2023-04-24T07:10:53.197Z,17.78
2023-04-24T07:15:56.402Z,17.86
2023-04-24T07:20:57.887Z,17.99
2023-04-24T07:26:09.831Z,18.14
2023-04-24T07:31:14.106Z,18.09
2023-04-24T07:36:22.838Z,18.21
2023-04-24T07:41:24.958Z,18.32
2023-04-24T07:46:24.589Z,18.57
2023-04-24T07:51:29.627Z,18.62
2023-04-24T07:56:34.873Z,18.72
2023-04-24T08:01:36.854Z,19.08
2023-04-24T08:06:37.733Z,19.35
2023-04-24T08:11:40.242Z,19.70
2023-04-24T08:16:38.913Z,19.92
2023-04-24T08:21:44.908Z,19.74
2023-04-24T08:26:45.300Z,20.18
2023-04-24T08:31:45.845Z,20.44
2023-04-24T08:36:47.760Z,21.05
2023-04-24T08:41:49.845Z,21.71
2023-04-24T08:46:50.901Z,22.64
2023-04-24T08:51:54.618Z,23.66
2023-04-24T08:56:57.751Z,24.40
2023-04-24T09:02:00.056Z,24.81
2023-04-24T09:07:05.849Z,25.68
2023-04-24T09:12:15.953Z,26.73
2023-04-24T09:17:15.174Z,27.65
2023-04-24T09:22:19.891Z,28.36
2023-04-24T09:27:25.857Z,28.96
2023-04-24T09:32:30.663Z,29.69
2023-04-24T09:37:33.097Z,30.89
2023-04-24T09:42:37.987Z,30.37
2023-04-24T09:47:46.415Z,31.25
2023-04-24T09:52:50.053Z,31.71
2023-04-24T09:57:55.612Z,32.33
2023-04-24T10:02:58.741Z,32.90
2023-04-24T10:08:05.302Z,33.53
2023-04-24T10:13:07.945Z,33.92
2023-04-24T10:18:08.774Z,34.33
2023-04-24T10:23:08.105Z,33.46
2023-04-24T10:28:11.069Z,33.61
2023-04-24T10:33:10.846Z,33.62
2023-04-24T10:38:13.352Z,32.86
2023-04-24T10:43:19.656Z,32.75
2023-04-24T10:48:18.465Z,32.89
2023-04-24T10:53:19.550Z,32.12
2023-04-24T10:58:24.387Z,31.36
2023-04-24T11:03:28.415Z,32.20
2023-04-24T11:08:34.171Z,32.76
2023-04-24T11:14:08.096Z,33.17
2023-04-24T11:19:09.033Z,32.90
2023-04-24T11:24:28.171Z,33.67
2023-04-24T11:29:43.196Z,34.26
2023-04-24T11:34:42.684Z,33.87
2023-04-24T11:39:41.525Z,33.48
2023-04-24T11:44:43.513Z,33.32
2023-04-24T11:49:42.360Z,33.55
2023-04-24T11:54:49.682Z,33.65
2023-04-24T11:59:49.967Z,33.05
2023-04-24T12:04:52.206Z,33.54
2023-04-24T12:09:56.816Z,33.28
2023-04-24T12:14:58.986Z,33.09
2023-04-24T12:20:03.447Z,32.93
2023-04-24T12:25:04.173Z,33.21
2023-04-24T12:30:07.536Z,33.24
2023-04-24T12:35:07.737Z,32.61
2023-04-24T12:40:09.769Z,32.46
2023-04-24T12:45:13.562Z,32.41
2023-04-24T12:50:14.194Z,32.30
2023-04-24T12:55:13.165Z,32.91
2023-04-24T13:00:14.332Z,32.35
2023-04-24T13:05:14.916Z,32.10
2023-04-24T13:10:14.380Z,32.19
2023-04-24T13:15:14.887Z,31.63
2023-04-24T13:20:18.572Z,31.83
2023-04-24T13:25:19.466Z,32.28
2023-04-24T13:30:22.450Z,33.40
2023-04-24T13:35:31.991Z,34.29
2023-04-24T13:40:31.206Z,34.49
2023-04-24T13:45:32.217Z,34.35
2023-04-24T13:50:31.068Z,34.73
2023-04-24T13:55:43.698Z,34.54
2023-04-24T14:01:00.272Z,33.78
2023-04-24T14:05:59.606Z,33.64
2023-04-24T14:11:01.016Z,33.25
2023-04-24T14:16:23.896Z,32.67
2023-04-24T14:21:28.355Z,32.16
2023-04-24T14:26:28.469Z,31.70
2023-04-24T14:31:35.115Z,30.81
2023-04-24T14:36:57.307Z,30.26
2023-04-24T14:41:59.063Z,29.92
2023-04-24T14:47:04.272Z,29.82
2023-04-24T14:52:05.691Z,29.22
2023-04-24T14:57:13.710Z,29.13
2023-04-24T15:02:19.043Z,29.01
2023-04-24T15:07:20.334Z,28.46
2023-04-24T15:12:22.182Z,28.18
2023-04-24T15:17:26.551Z,27.96
2023-04-24T15:22:26.909Z,27.62
2023-04-24T15:27:26.203Z,27.34
2023-04-24T15:32:29.064Z,27.04
2023-04-24T15:37:32.898Z,26.83
2023-04-24T15:42:35.432Z,26.73
2023-04-24T15:47:36.669Z,26.67
2023-04-24T15:52:36.429Z,26.56
2023-04-24T15:57:39.947Z,26.39
2023-04-24T16:02:41.311Z,26.26
2023-04-24T16:07:41.417Z,26.15
2023-04-24T16:12:41.442Z,25.94
2023-04-24T16:17:46.538Z,25.74
2023-04-24T16:22:52.319Z,25.63
2023-04-24T16:27:53.529Z,25.48
2023-04-24T16:32:54.293Z,25.36
2023-04-24T16:37:53.870Z,25.20
2023-04-24T16:42:55.315Z,25.04
2023-04-24T16:48:00.370Z,24.94
2023-04-24T16:52:59.993Z,24.85
2023-04-24T16:58:00.228Z,24.75
2023-04-24T17:03:03.962Z,24.64
2023-04-24T17:08:04.722Z,24.54
2023-04-24T17:13:04.601Z,24.41
2023-04-24T17:18:06.417Z,24.33
2023-04-24T17:23:05.498Z,24.00
2023-04-24T17:28:05.371Z,23.59
2023-04-24T17:33:06.415Z,23.26
2023-04-24T17:38:06.076Z,22.79
2023-04-24T17:43:07.341Z,22.51
2023-04-24T17:48:08.077Z,22.40
2023-04-24T17:53:07.118Z,22.14
2023-04-24T17:58:10.791Z,22.03
2023-04-24T18:03:11.491Z,21.91
2023-04-24T18:08:11.431Z,21.71
2023-04-24T18:13:11.589Z,21.68
2023-04-24T18:18:15.361Z,21.69
2023-04-24T18:23:14.083Z,21.55
2023-04-24T18:28:16.276Z,21.58
2023-04-24T18:33:16.698Z,20.80
2023-04-24T18:38:20.656Z,20.64
2023-04-24T18:43:21.791Z,20.85
2023-04-24T18:48:22.052Z,20.76
2023-04-24T18:53:23.969Z,20.88
2023-04-24T18:58:23.257Z,20.69
2023-04-24T19:03:23.879Z,20.86
2023-04-24T19:08:22.670Z,20.95
2023-04-24T19:13:22.164Z,20.91
2023-04-24T19:18:23.345Z,21.01
2023-04-24T19:23:24.210Z,21.05
2023-04-24T19:28:22.967Z,21.00
2023-04-24T19:33:21.863Z,20.82
2023-04-24T19:38:20.737Z,20.60
2023-04-24T19:43:23.249Z,20.67
2023-04-24T19:48:22.597Z,20.67
2023-04-24T19:53:21.519Z,20.57
2023-04-24T19:58:24.037Z,20.66
2023-04-24T20:03:32.901Z,20.65
2023-04-24T20:08:43.256Z,20.56
2023-04-24T20:13:46.066Z,20.53
2023-04-24T20:18:45.586Z,20.40
2023-04-24T20:23:45.237Z,20.03
2023-04-24T20:28:46.630Z,20.04
2023-04-24T20:33:46.210Z,20.06
2023-04-24T20:38:45.169Z,19.96
2023-04-24T20:43:45.518Z,19.93
2023-04-24T20:48:44.458Z,19.70
2023-04-24T20:53:45.934Z,19.49
2023-04-24T20:58:59.373Z,19.20
2023-04-24T21:03:59.274Z,19.05
2023-04-24T21:08:58.263Z,18.73
2023-04-24T21:13:58.494Z,18.49
2023-04-24T21:18:57.310Z,18.55
2023-04-24T21:23:56.111Z,18.36
2023-04-24T21:28:55.123Z,18.49
2023-04-24T21:33:55.283Z,18.48
2023-04-24T21:38:54.012Z,18.55
2023-04-24T21:43:55.720Z,18.62
2023-04-24T21:48:56.144Z,18.51
2023-04-24T21:53:54.875Z,18.53
2023-04-24T21:58:54.140Z,18.51
2023-04-24T22:03:53.420Z,18.47
2023-04-24T22:08:53.912Z,18.48
2023-04-24T22:13:55.209Z,18.52
2023-04-24T22:18:55.242Z,18.55
2023-04-24T22:23:55.835Z,18.61
2023-04-24T22:28:55.166Z,18.62
2023-04-24T22:33:53.908Z,18.65
2023-04-24T22:38:52.761Z,18.63
2023-04-24T22:43:52.925Z,18.65
2023-04-24T22:48:51.784Z,18.66
2023-04-24T22:53:50.886Z,18.67
2023-04-24T22:58:50.056Z,18.69
2023-04-24T23:03:50.862Z,18.73
2023-04-24T23:08:49.868Z,18.69
2023-04-24T23:13:48.807Z,18.70
2023-04-24T23:18:49.716Z,18.66
2023-04-24T23:23:50.715Z,18.61
2023-04-24T23:28:49.590Z,18.52
2023-04-24T23:33:49.863Z,18.49
2023-04-24T23:38:50.546Z,18.33
2023-04-24T23:43:50.012Z,18.13
2023-04-24T23:48:50.257Z,18.07
2023-04-24T23:53:49.950Z,17.99
2023-04-24T23:58:49.269Z,17.90
